Terminal Aerodrome Forecast
Issued by NWS

Home | Current Version | Previous Version | Text Only | Print | Product List | Glossary On
Versions: 1 2 3 4 5 6 7 8 9 10 11 12 13
000
FTAK31 PAFA 241735
TAFATA
TAF
PATA 241735Z 2418/2518 09006KT P6SM BKN080
     FM242200 11009KT P6SM VCSH SCT070 BKN120
     FM250200 04005KT P6SM BKN150=

USA.gov is the U.S. government's official web portal to all federal, state and local government web resources and services.